Kaduna Old Airport

DN53 · Kaduna, Nigeria

Storia di METAR DN53 · Kaduna Old Airport

Di seguito sono riportati i METAR degli ultimi giorni. Seleziona un anno per sfogliare i METAR più vecchi, dall'anno 2007 in poi.

26 febbraio 2024

Tempo Codice Tempo meteorologico Temp. Vista Base nuvolosa Vento METAR/SPECI
03:00
V
23 °C 8 km - 050° 050° 6 kt METAR DNKA 260200Z 05006KT 8000 HZ NSC 23/10 Q1015 NOSIG
03:00
V
23 °C 8 km - 050° 050° 6 kt METAR DNKA 260200Z 05006KT 8000 HZ NSC 23/10 Q1015 NOSIG
02:00
V
24 °C 8 km - 030° 030° 6 kt METAR DNKA 260100Z 03006KT 8000 NSC 24/10 Q1016 NOSIG

25 febbraio 2024

Tempo Codice Tempo meteorologico Temp. Vista Base nuvolosa Vento METAR/SPECI
14:00
V
35 °C 10 km+ - 050° 050° 9 kt METAR DNKA 251300Z 05009KT CAVOK 35/09 Q1016 NOSIG
13:00
V
34 °C 10 km+ - 060° 060° 13 kt METAR DNKA 251200Z 06013KT CAVOK 34/11 Q1018 NOSIG
12:00
V
32 °C 10 km+ - 060° 060° 12 kt METAR DNKA 251100Z 06012KT CAVOK 32/10 Q1019 NOSIG
11:00
V
31 °C 10 km+ - 060° 060° 5 kt METAR DNKA 251000Z 06005KT CAVOK 31/10 Q1019 NOSIG
10:00
V
30 °C 10 km+ - 080° 080° 14 kt METAR DNKA 250900Z 08014KT CAVOK 30/9 Q1020 NOSIG
08:00
V
23 °C 10 km+ - 090° 090° 3 kt METAR DNKA 250700Z 09003KT CAVOK 23/8 Q1018 NOSIG

24 febbraio 2024

Tempo Codice Tempo meteorologico Temp. Vista Base nuvolosa Vento METAR/SPECI
23:00
V
25 °C 8 km - 090° 090° 8 kt METAR DNKA 242200Z 09008KT 8000 SCT010 25/10 Q1018 NOSIG
21:00
V
26 °C 8 km - 030° 030° 10 kt METAR DNKA 242000Z 03010KT 8000 FEW010 26/10 Q1017 NOSIG
17:00
V
29 °C 8 km - 050° 050° 11 kt METAR DNKA 241600Z 05011KT 8000 FEW011 29/12 Q1015 NOSIG
16:00
V
29 °C 8 km - 040° 040° 7 kt METAR DNKA 241500Z 04007KT 8000 FEW011 29/12 Q1015 NOSIG
14:00
M
29 °C 8 km 1.200 ft 090° 090° 11 kt METAR DNKA 241300Z 09011KT 8000 BKN012 29/11 Q1016 NOSIG
12:00
V
30 °C 8 km - 070° 070° 14 kt METAR DNKA 241100Z 07014KT 8000 NSC 30/10 Q1017
11:00
M
29 °C 8 km 1.100 ft 070° 070° 10 kt METAR DNKA 241000Z 07010KT 8000 BKN011 29/11 Q1018 NOSIG
10:00
V
29 °C 8 km - 060° 060° 11 kt METAR DNKA 240900Z 06011KT 8000 SCT011 29/12 Q1018 NOSIG
09:00
I
23 °C 8 km 900 ft 070° 070° 6 kt METAR DNKA 240800Z 07006KT 8000 BKN009 23/8 Q1018
00:00
V
25 °C 8 km - 070° 070° 8 kt METAR DNKA 232300Z 07008KT 8000 FEW010 25/08 Q1016 NOSIG

23 febbraio 2024

Tempo Codice Tempo meteorologico Temp. Vista Base nuvolosa Vento METAR/SPECI
16:00
V
32 °C 8 km - 050° 050° 10 kt METAR DNKA 231500Z 05010KT 8000 NSC 32/10 Q1013 NOSIG
14:00
V
33 °C 10 km+ - 080° 080° 10 kt METAR DNKA 231300Z 08010KT CAVOK 33/9 Q1014 NOSIG
13:00
V
30 °C 10 km+ - 090° 090° 10 kt METAR DNKA 231200Z 09010KT CAVOK 30/9 Q1015 NOSIG
12:00
V
29 °C 10 km+ - 090° 090° 11 kt METAR DNKA 231100Z 09011KT CAVOK 29/09 Q1016 NOSIG
11:00
V
29 °C 10 km+ - 090° 090° 15 kt METAR DNKA 231000Z 09015KT CAVOK 29/08 Q1016 NOSIG
10:00
V
27 °C 10 km+ - 080° 080° 18 kt METAR DNKA 230900Z 08018KT CAVOK 27/06 Q1016 NOSIG
09:00
I
24 °C 8 km 900 ft 090° 090° 12 kt METAR DNKA 230800Z 09012KT 8000 BKN009 24/07 Q1016 NOSIG